sensor_id;sensor_type;location;lat;lon;timestamp;P1;durP1;ratioP1;P2;durP2;ratioP2
39020;SDS011;25188;51.958;5.842;2023-02-13T00:00:30;32.70;;;17.40;;
39020;SDS011;25188;51.958;5.842;2023-02-13T00:02:57;33.17;;;16.60;;
39020;SDS011;25188;51.958;5.842;2023-02-13T00:05:23;27.87;;;15.67;;
39020;SDS011;25188;51.958;5.842;2023-02-13T00:07:48;28.77;;;16.00;;
39020;SDS011;25188;51.958;5.842;2023-02-13T00:10:14;31.17;;;15.73;;
39020;SDS011;25188;51.958;5.842;2023-02-13T00:12:40;30.17;;;16.67;;
39020;SDS011;25188;51.958;5.842;2023-02-13T00:15:06;30.03;;;15.00;;
39020;SDS011;25188;51.958;5.842;2023-02-13T00:17:32;28.27;;;15.33;;
39020;SDS011;25188;51.958;5.842;2023-02-13T00:19:57;25.10;;;12.97;;
39020;SDS011;25188;51.958;5.842;2023-02-13T00:22:23;27.67;;;14.37;;
39020;SDS011;25188;51.958;5.842;2023-02-13T00:24:49;26.77;;;14.93;;
39020;SDS011;25188;51.958;5.842;2023-02-13T00:27:15;28.50;;;15.07;;
39020;SDS011;25188;51.958;5.842;2023-02-13T00:29:40;27.97;;;15.53;;
39020;SDS011;25188;51.958;5.842;2023-02-13T00:32:06;27.63;;;15.23;;
39020;SDS011;25188;51.958;5.842;2023-02-13T00:34:32;27.80;;;15.37;;
39020;SDS011;25188;51.958;5.842;2023-02-13T00:36:58;29.77;;;15.67;;
39020;SDS011;25188;51.958;5.842;2023-02-13T00:39:23;29.77;;;15.27;;
39020;SDS011;25188;51.958;5.842;2023-02-13T00:41:49;26.77;;;14.37;;
39020;SDS011;25188;51.958;5.842;2023-02-13T00:44:15;26.20;;;14.40;;
39020;SDS011;25188;51.958;5.842;2023-02-13T00:46:40;27.20;;;15.33;;
39020;SDS011;25188;51.958;5.842;2023-02-13T00:49:06;30.10;;;14.53;;
39020;SDS011;25188;51.958;5.842;2023-02-13T00:51:32;25.73;;;14.97;;
39020;SDS011;25188;51.958;5.842;2023-02-13T00:53:57;26.33;;;14.07;;
39020;SDS011;25188;51.958;5.842;2023-02-13T00:56:23;26.80;;;14.17;;
39020;SDS011;25188;51.958;5.842;2023-02-13T00:58:48;26.07;;;14.23;;
39020;SDS011;25188;51.958;5.842;2023-02-13T01:01:14;26.23;;;13.30;;
39020;SDS011;25188;51.958;5.842;2023-02-13T01:03:40;27.33;;;16.17;;
39020;SDS011;25188;51.958;5.842;2023-02-13T01:06:06;25.57;;;14.10;;
39020;SDS011;25188;51.958;5.842;2023-02-13T01:08:32;30.37;;;15.60;;
39020;SDS011;25188;51.958;5.842;2023-02-13T01:10:58;26.53;;;14.57;;
39020;SDS011;25188;51.958;5.842;2023-02-13T01:13:24;27.67;;;14.60;;
39020;SDS011;25188;51.958;5.842;2023-02-13T01:15:50;26.77;;;14.87;;
39020;SDS011;25188;51.958;5.842;2023-02-13T01:18:16;26.33;;;15.17;;
39020;SDS011;25188;51.958;5.842;2023-02-13T01:20:43;27.53;;;14.30;;
39020;SDS011;25188;51.958;5.842;2023-02-13T01:23:10;27.57;;;14.40;;
39020;SDS011;25188;51.958;5.842;2023-02-13T01:25:40;28.27;;;14.47;;
39020;SDS011;25188;51.958;5.842;2023-02-13T01:28:06;30.47;;;15.20;;
39020;SDS011;25188;51.958;5.842;2023-02-13T01:30:32;26.63;;;14.70;;
39020;SDS011;25188;51.958;5.842;2023-02-13T01:32:58;27.00;;;14.80;;
39020;SDS011;25188;51.958;5.842;2023-02-13T01:35:23;25.93;;;14.93;;
39020;SDS011;25188;51.958;5.842;2023-02-13T01:37:49;28.40;;;14.77;;
39020;SDS011;25188;51.958;5.842;2023-02-13T01:40:15;26.30;;;14.40;;
39020;SDS011;25188;51.958;5.842;2023-02-13T01:42:41;29.90;;;16.00;;
39020;SDS011;25188;51.958;5.842;2023-02-13T01:45:24;30.10;;;15.20;;
39020;SDS011;25188;51.958;5.842;2023-02-13T01:48:27;27.20;;;14.63;;
39020;SDS011;25188;51.958;5.842;2023-02-13T01:50:53;27.60;;;15.67;;
39020;SDS011;25188;51.958;5.842;2023-02-13T01:53:35;28.30;;;15.00;;
39020;SDS011;25188;51.958;5.842;2023-02-13T01:56:12;26.37;;;13.93;;
39020;SDS011;25188;51.958;5.842;2023-02-13T01:58:48;29.93;;;16.40;;
39020;SDS011;25188;51.958;5.842;2023-02-13T02:01:18;28.73;;;15.33;;
39020;SDS011;25188;51.958;5.842;2023-02-13T02:03:54;28.33;;;15.50;;
39020;SDS011;25188;51.958;5.842;2023-02-13T02:06:26;28.33;;;15.27;;
39020;SDS011;25188;51.958;5.842;2023-02-13T02:08:57;31.80;;;15.53;;
39020;SDS011;25188;51.958;5.842;2023-02-13T02:11:31;31.70;;;15.43;;
39020;SDS011;25188;51.958;5.842;2023-02-13T02:14:14;30.67;;;15.97;;
39020;SDS011;25188;51.958;5.842;2023-02-13T02:16:40;29.37;;;16.17;;
39020;SDS011;25188;51.958;5.842;2023-02-13T02:19:08;30.57;;;17.17;;
39020;SDS011;25188;51.958;5.842;2023-02-13T02:27:17;31.30;;;15.60;;
39020;SDS011;25188;51.958;5.842;2023-02-13T02:35:51;30.77;;;15.97;;
39020;SDS011;25188;51.958;5.842;2023-02-13T02:46:33;31.60;;;17.40;;
39020;SDS011;25188;51.958;5.842;2023-02-13T02:49:13;29.07;;;15.90;;
39020;SDS011;25188;51.958;5.842;2023-02-13T02:52:04;34.70;;;17.87;;
39020;SDS011;25188;51.958;5.842;2023-02-13T02:54:39;29.70;;;16.33;;
39020;SDS011;25188;51.958;5.842;2023-02-13T02:57:33;29.57;;;15.77;;
39020;SDS011;25188;51.958;5.842;2023-02-13T03:00:23;32.30;;;17.47;;
39020;SDS011;25188;51.958;5.842;2023-02-13T03:03:12;32.23;;;17.63;;
39020;SDS011;25188;51.958;5.842;2023-02-13T03:06:00;32.63;;;17.57;;
39020;SDS011;25188;51.958;5.842;2023-02-13T03:08:37;34.00;;;18.10;;
39020;SDS011;25188;51.958;5.842;2023-02-13T03:11:27;30.57;;;17.50;;
39020;SDS011;25188;51.958;5.842;2023-02-13T03:14:12;31.20;;;17.23;;
39020;SDS011;25188;51.958;5.842;2023-02-13T03:16:41;29.97;;;17.27;;
39020;SDS011;25188;51.958;5.842;2023-02-13T03:27:49;30.63;;;16.77;;
39020;SDS011;25188;51.958;5.842;2023-02-13T03:35:51;36.53;;;18.70;;
39020;SDS011;25188;51.958;5.842;2023-02-13T03:41:42;37.53;;;19.93;;
39020;SDS011;25188;51.958;5.842;2023-02-13T03:44:17;33.53;;;19.00;;
39020;SDS011;25188;51.958;5.842;2023-02-13T03:46:47;37.83;;;19.37;;
39020;SDS011;25188;51.958;5.842;2023-02-13T03:49:26;35.97;;;19.07;;
39020;SDS011;25188;51.958;5.842;2023-02-13T03:52:26;37.17;;;19.03;;
39020;SDS011;25188;51.958;5.842;2023-02-13T03:55:26;37.00;;;19.47;;
39020;SDS011;25188;51.958;5.842;2023-02-13T03:58:20;32.30;;;17.47;;
39020;SDS011;25188;51.958;5.842;2023-02-13T04:01:06;29.80;;;16.97;;
39020;SDS011;25188;51.958;5.842;2023-02-13T04:03:39;33.97;;;18.50;;
39020;SDS011;25188;51.958;5.842;2023-02-13T04:06:13;34.70;;;19.20;;
39020;SDS011;25188;51.958;5.842;2023-02-13T04:08:42;37.87;;;19.93;;
39020;SDS011;25188;51.958;5.842;2023-02-13T04:11:16;34.83;;;19.00;;
39020;SDS011;25188;51.958;5.842;2023-02-13T04:16:51;38.57;;;20.80;;
39020;SDS011;25188;51.958;5.842;2023-02-13T04:19:28;37.03;;;19.50;;
39020;SDS011;25188;51.958;5.842;2023-02-13T04:21:55;35.20;;;20.43;;
39020;SDS011;25188;51.958;5.842;2023-02-13T04:24:23;37.87;;;20.83;;
39020;SDS011;25188;51.958;5.842;2023-02-13T04:26:50;39.93;;;21.27;;
39020;SDS011;25188;51.958;5.842;2023-02-13T04:29:16;36.10;;;20.60;;
39020;SDS011;25188;51.958;5.842;2023-02-13T04:31:42;39.60;;;21.47;;
39020;SDS011;25188;51.958;5.842;2023-02-13T04:34:07;38.80;;;20.67;;
39020;SDS011;25188;51.958;5.842;2023-02-13T04:36:33;39.37;;;20.97;;
39020;SDS011;25188;51.958;5.842;2023-02-13T04:38:59;45.07;;;22.47;;
39020;SDS011;25188;51.958;5.842;2023-02-13T04:41:24;37.73;;;21.13;;
39020;SDS011;25188;51.958;5.842;2023-02-13T04:43:50;38.20;;;21.37;;
39020;SDS011;25188;51.958;5.842;2023-02-13T04:46:16;38.70;;;20.50;;
39020;SDS011;25188;51.958;5.842;2023-02-13T04:48:42;37.00;;;20.83;;
39020;SDS011;25188;51.958;5.842;2023-02-13T04:51:08;39.23;;;20.63;;
39020;SDS011;25188;51.958;5.842;2023-02-13T04:53:33;39.53;;;21.13;;
39020;SDS011;25188;51.958;5.842;2023-02-13T04:55:59;37.10;;;19.53;;
39020;SDS011;25188;51.958;5.842;2023-02-13T04:58:25;40.70;;;22.00;;
39020;SDS011;25188;51.958;5.842;2023-02-13T05:00:50;39.27;;;21.53;;
39020;SDS011;25188;51.958;5.842;2023-02-13T05:03:16;35.50;;;20.10;;
39020;SDS011;25188;51.958;5.842;2023-02-13T05:05:41;35.97;;;20.10;;
39020;SDS011;25188;51.958;5.842;2023-02-13T05:08:08;37.33;;;20.67;;
39020;SDS011;25188;51.958;5.842;2023-02-13T05:10:35;38.87;;;21.30;;
39020;SDS011;25188;51.958;5.842;2023-02-13T05:13:01;36.63;;;20.67;;
39020;SDS011;25188;51.958;5.842;2023-02-13T05:15:27;42.93;;;21.90;;
39020;SDS011;25188;51.958;5.842;2023-02-13T05:17:53;39.40;;;21.73;;
39020;SDS011;25188;51.958;5.842;2023-02-13T05:20:18;41.13;;;21.67;;
39020;SDS011;25188;51.958;5.842;2023-02-13T05:22:45;37.87;;;21.00;;
39020;SDS011;25188;51.958;5.842;2023-02-13T05:25:33;37.30;;;20.20;;
39020;SDS011;25188;51.958;5.842;2023-02-13T05:28:00;39.67;;;21.57;;
39020;SDS011;25188;51.958;5.842;2023-02-13T05:30:25;40.77;;;21.63;;
39020;SDS011;25188;51.958;5.842;2023-02-13T05:32:51;37.03;;;20.47;;
39020;SDS011;25188;51.958;5.842;2023-02-13T05:35:18;36.47;;;20.80;;
39020;SDS011;25188;51.958;5.842;2023-02-13T05:37:45;40.50;;;21.90;;
39020;SDS011;25188;51.958;5.842;2023-02-13T05:40:12;42.40;;;23.10;;
39020;SDS011;25188;51.958;5.842;2023-02-13T05:42:38;38.30;;;21.30;;
39020;SDS011;25188;51.958;5.842;2023-02-13T05:45:07;40.70;;;21.40;;
39020;SDS011;25188;51.958;5.842;2023-02-13T05:47:33;41.60;;;21.57;;
39020;SDS011;25188;51.958;5.842;2023-02-13T05:49:59;39.57;;;20.47;;
39020;SDS011;25188;51.958;5.842;2023-02-13T05:52:25;42.17;;;21.23;;
39020;SDS011;25188;51.958;5.842;2023-02-13T05:54:51;49.93;;;19.57;;
39020;SDS011;25188;51.958;5.842;2023-02-13T05:57:16;42.00;;;21.43;;
39020;SDS011;25188;51.958;5.842;2023-02-13T05:59:42;41.90;;;21.03;;
39020;SDS011;25188;51.958;5.842;2023-02-13T06:02:08;37.80;;;19.37;;
39020;SDS011;25188;51.958;5.842;2023-02-13T06:04:34;36.00;;;21.07;;
39020;SDS011;25188;51.958;5.842;2023-02-13T06:06:59;40.20;;;21.13;;
39020;SDS011;25188;51.958;5.842;2023-02-13T06:09:25;37.73;;;20.83;;
39020;SDS011;25188;51.958;5.842;2023-02-13T06:11:50;36.80;;;20.33;;
39020;SDS011;25188;51.958;5.842;2023-02-13T06:14:16;35.00;;;19.03;;
39020;SDS011;25188;51.958;5.842;2023-02-13T06:16:42;37.80;;;20.87;;
39020;SDS011;25188;51.958;5.842;2023-02-13T06:19:07;38.27;;;21.00;;
39020;SDS011;25188;51.958;5.842;2023-02-13T06:21:33;33.97;;;19.73;;
39020;SDS011;25188;51.958;5.842;2023-02-13T06:24:02;36.80;;;21.00;;
39020;SDS011;25188;51.958;5.842;2023-02-13T06:26:28;34.37;;;19.50;;
39020;SDS011;25188;51.958;5.842;2023-02-13T06:28:54;38.63;;;21.10;;
39020;SDS011;25188;51.958;5.842;2023-02-13T06:31:20;35.40;;;19.60;;
39020;SDS011;25188;51.958;5.842;2023-02-13T06:33:46;34.57;;;19.93;;
39020;SDS011;25188;51.958;5.842;2023-02-13T06:36:11;38.27;;;21.63;;
39020;SDS011;25188;51.958;5.842;2023-02-13T06:38:37;38.03;;;21.23;;
39020;SDS011;25188;51.958;5.842;2023-02-13T06:41:03;36.73;;;20.40;;
39020;SDS011;25188;51.958;5.842;2023-02-13T06:43:28;34.03;;;19.23;;
39020;SDS011;25188;51.958;5.842;2023-02-13T06:45:54;33.63;;;19.73;;
39020;SDS011;25188;51.958;5.842;2023-02-13T06:48:20;36.43;;;20.43;;
39020;SDS011;25188;51.958;5.842;2023-02-13T06:50:46;36.50;;;20.17;;
39020;SDS011;25188;51.958;5.842;2023-02-13T06:53:12;38.07;;;21.97;;
39020;SDS011;25188;51.958;5.842;2023-02-13T06:55:37;31.60;;;18.33;;
39020;SDS011;25188;51.958;5.842;2023-02-13T06:58:04;36.03;;;19.43;;
39020;SDS011;25188;51.958;5.842;2023-02-13T07:00:30;34.13;;;19.57;;
39020;SDS011;25188;51.958;5.842;2023-02-13T07:03:00;33.57;;;18.80;;
39020;SDS011;25188;51.958;5.842;2023-02-13T07:05:27;37.20;;;19.77;;
39020;SDS011;25188;51.958;5.842;2023-02-13T07:07:53;35.90;;;20.63;;
39020;SDS011;25188;51.958;5.842;2023-02-13T07:10:18;34.87;;;19.93;;
39020;SDS011;25188;51.958;5.842;2023-02-13T07:12:44;36.60;;;19.93;;
39020;SDS011;25188;51.958;5.842;2023-02-13T07:15:10;36.50;;;19.87;;
39020;SDS011;25188;51.958;5.842;2023-02-13T07:17:36;34.13;;;18.83;;
39020;SDS011;25188;51.958;5.842;2023-02-13T07:20:02;33.67;;;19.40;;
39020;SDS011;25188;51.958;5.842;2023-02-13T07:22:29;34.67;;;20.40;;
39020;SDS011;25188;51.958;5.842;2023-02-13T07:24:58;33.17;;;18.80;;
39020;SDS011;25188;51.958;5.842;2023-02-13T07:27:24;38.60;;;21.07;;
39020;SDS011;25188;51.958;5.842;2023-02-13T07:29:53;34.97;;;20.40;;
39020;SDS011;25188;51.958;5.842;2023-02-13T07:32:22;39.60;;;20.10;;
39020;SDS011;25188;51.958;5.842;2023-02-13T07:34:48;35.20;;;21.20;;
39020;SDS011;25188;51.958;5.842;2023-02-13T07:37:14;36.33;;;21.10;;
39020;SDS011;25188;51.958;5.842;2023-02-13T07:39:39;34.00;;;19.93;;
39020;SDS011;25188;51.958;5.842;2023-02-13T07:42:05;35.83;;;19.53;;
39020;SDS011;25188;51.958;5.842;2023-02-13T07:44:31;30.57;;;18.80;;
39020;SDS011;25188;51.958;5.842;2023-02-13T07:46:57;32.23;;;20.10;;
39020;SDS011;25188;51.958;5.842;2023-02-13T07:49:22;34.87;;;20.57;;
39020;SDS011;25188;51.958;5.842;2023-02-13T07:51:49;35.17;;;20.37;;
39020;SDS011;25188;51.958;5.842;2023-02-13T07:54:15;32.53;;;19.63;;
39020;SDS011;25188;51.958;5.842;2023-02-13T07:56:40;31.47;;;19.10;;
39020;SDS011;25188;51.958;5.842;2023-02-13T07:59:06;36.80;;;20.73;;
39020;SDS011;25188;51.958;5.842;2023-02-13T08:01:32;36.07;;;21.37;;
39020;SDS011;25188;51.958;5.842;2023-02-13T08:03:57;33.53;;;20.00;;
39020;SDS011;25188;51.958;5.842;2023-02-13T08:06:23;35.87;;;20.77;;
39020;SDS011;25188;51.958;5.842;2023-02-13T08:08:49;35.37;;;21.07;;
39020;SDS011;25188;51.958;5.842;2023-02-13T08:11:34;32.57;;;19.20;;
39020;SDS011;25188;51.958;5.842;2023-02-13T08:14:32;33.97;;;20.23;;
39020;SDS011;25188;51.958;5.842;2023-02-13T08:16:58;33.27;;;19.63;;
39020;SDS011;25188;51.958;5.842;2023-02-13T08:19:28;36.87;;;20.97;;
39020;SDS011;25188;51.958;5.842;2023-02-13T08:21:54;34.33;;;19.90;;
39020;SDS011;25188;51.958;5.842;2023-02-13T08:24:19;34.80;;;20.20;;
39020;SDS011;25188;51.958;5.842;2023-02-13T08:26:45;35.23;;;21.53;;
39020;SDS011;25188;51.958;5.842;2023-02-13T08:29:11;32.80;;;19.97;;
39020;SDS011;25188;51.958;5.842;2023-02-13T08:31:37;31.10;;;19.70;;
39020;SDS011;25188;51.958;5.842;2023-02-13T08:34:02;38.80;;;21.63;;
39020;SDS011;25188;51.958;5.842;2023-02-13T08:36:29;33.07;;;20.63;;
39020;SDS011;25188;51.958;5.842;2023-02-13T08:38:55;33.63;;;20.10;;
39020;SDS011;25188;51.958;5.842;2023-02-13T08:41:21;32.23;;;19.60;;
39020;SDS011;25188;51.958;5.842;2023-02-13T08:43:47;35.63;;;20.93;;
39020;SDS011;25188;51.958;5.842;2023-02-13T08:46:14;35.27;;;21.30;;
39020;SDS011;25188;51.958;5.842;2023-02-13T08:48:40;37.53;;;21.03;;
39020;SDS011;25188;51.958;5.842;2023-02-13T08:51:07;34.00;;;19.77;;
39020;SDS011;25188;51.958;5.842;2023-02-13T08:53:33;36.40;;;21.60;;
39020;SDS011;25188;51.958;5.842;2023-02-13T08:55:59;33.43;;;20.77;;
39020;SDS011;25188;51.958;5.842;2023-02-13T08:58:25;35.60;;;21.47;;
39020;SDS011;25188;51.958;5.842;2023-02-13T09:00:51;34.70;;;20.97;;
39020;SDS011;25188;51.958;5.842;2023-02-13T09:03:17;36.43;;;21.23;;
39020;SDS011;25188;51.958;5.842;2023-02-13T09:05:43;35.13;;;20.33;;
39020;SDS011;25188;51.958;5.842;2023-02-13T09:08:08;34.13;;;19.53;;
39020;SDS011;25188;51.958;5.842;2023-02-13T09:10:36;32.23;;;19.40;;
39020;SDS011;25188;51.958;5.842;2023-02-13T09:13:02;30.90;;;18.97;;
39020;SDS011;25188;51.958;5.842;2023-02-13T09:15:28;31.73;;;18.90;;
39020;SDS011;25188;51.958;5.842;2023-02-13T09:17:55;32.23;;;19.10;;
39020;SDS011;25188;51.958;5.842;2023-02-13T09:20:20;28.47;;;17.27;;
39020;SDS011;25188;51.958;5.842;2023-02-13T09:22:46;30.00;;;18.63;;
39020;SDS011;25188;51.958;5.842;2023-02-13T09:25:12;30.53;;;17.87;;
39020;SDS011;25188;51.958;5.842;2023-02-13T09:27:38;32.13;;;18.23;;
39020;SDS011;25188;51.958;5.842;2023-02-13T09:30:04;27.53;;;16.47;;
39020;SDS011;25188;51.958;5.842;2023-02-13T09:32:31;30.53;;;18.60;;
39020;SDS011;25188;51.958;5.842;2023-02-13T09:34:58;30.27;;;18.13;;
39020;SDS011;25188;51.958;5.842;2023-02-13T09:37:24;26.40;;;16.60;;
39020;SDS011;25188;51.958;5.842;2023-02-13T09:39:51;29.03;;;17.87;;
39020;SDS011;25188;51.958;5.842;2023-02-13T09:42:21;29.60;;;17.07;;
39020;SDS011;25188;51.958;5.842;2023-02-13T09:44:53;28.03;;;16.67;;
39020;SDS011;25188;51.958;5.842;2023-02-13T09:52:31;30.20;;;16.23;;
39020;SDS011;25188;51.958;5.842;2023-02-13T09:54:59;27.17;;;16.80;;
39020;SDS011;25188;51.958;5.842;2023-02-13T09:57:27;27.67;;;17.05;;
39020;SDS011;25188;51.958;5.842;2023-02-13T10:01:05;27.03;;;16.90;;
39020;SDS011;25188;51.958;5.842;2023-02-13T10:03:16;24.50;;;15.27;;
39020;SDS011;25188;51.958;5.842;2023-02-13T10:22:18;14.52;;;9.43;;
39020;SDS011;25188;51.958;5.842;2023-02-13T10:25:16;13.25;;;8.70;;
39020;SDS011;25188;51.958;5.842;2023-02-13T10:27:48;11.45;;;8.05;;
39020;SDS011;25188;51.958;5.842;2023-02-13T10:30:32;13.45;;;9.30;;
39020;SDS011;25188;51.958;5.842;2023-02-13T10:33:09;12.48;;;8.45;;
39020;SDS011;25188;51.958;5.842;2023-02-13T10:35:48;11.20;;;7.80;;
39020;SDS011;25188;51.958;5.842;2023-02-13T10:38:21;11.52;;;8.30;;
39020;SDS011;25188;51.958;5.842;2023-02-13T10:40:52;11.55;;;7.57;;
39020;SDS011;25188;51.958;5.842;2023-02-13T10:43:37;10.77;;;7.82;;
39020;SDS011;25188;51.958;5.842;2023-02-13T10:46:20;11.43;;;9.02;;
39020;SDS011;25188;51.958;5.842;2023-02-13T10:48:57;11.77;;;8.50;;
39020;SDS011;25188;51.958;5.842;2023-02-13T10:51:50;10.23;;;7.50;;
39020;SDS011;25188;51.958;5.842;2023-02-13T10:54:30;10.95;;;8.38;;
39020;SDS011;25188;51.958;5.842;2023-02-13T11:00:03;9.93;;;7.25;;
39020;SDS011;25188;51.958;5.842;2023-02-13T11:02:40;11.75;;;7.32;;
39020;SDS011;25188;51.958;5.842;2023-02-13T11:05:16;35.05;;;10.65;;
39020;SDS011;25188;51.958;5.842;2023-02-13T11:07:46;28.73;;;8.57;;
39020;SDS011;25188;51.958;5.842;2023-02-13T11:10:15;11.60;;;8.70;;
39020;SDS011;25188;51.958;5.842;2023-02-13T11:15:25;10.32;;;6.13;;
39020;SDS011;25188;51.958;5.842;2023-02-13T11:17:55;15.20;;;9.68;;
39020;SDS011;25188;51.958;5.842;2023-02-13T11:28:23;10.63;;;7.95;;
39020;SDS011;25188;51.958;5.842;2023-02-13T11:30:51;10.05;;;6.05;;
39020;SDS011;25188;51.958;5.842;2023-02-13T11:35:47;10.70;;;7.78;;
39020;SDS011;25188;51.958;5.842;2023-02-13T11:40:45;8.05;;;6.13;;
39020;SDS011;25188;51.958;5.842;2023-02-13T11:43:16;9.75;;;7.03;;
39020;SDS011;25188;51.958;5.842;2023-02-13T11:45:42;9.27;;;7.28;;
39020;SDS011;25188;51.958;5.842;2023-02-13T11:48:08;10.80;;;6.93;;
39020;SDS011;25188;51.958;5.842;2023-02-13T11:50:44;8.88;;;6.55;;
39020;SDS011;25188;51.958;5.842;2023-02-13T11:53:35;9.43;;;7.50;;
39020;SDS011;25188;51.958;5.842;2023-02-13T11:56:10;11.90;;;7.13;;
39020;SDS011;25188;51.958;5.842;2023-02-13T11:58:39;8.82;;;6.65;;
39020;SDS011;25188;51.958;5.842;2023-02-13T12:06:41;10.50;;;7.00;;
39020;SDS011;25188;51.958;5.842;2023-02-13T12:12:01;8.50;;;6.18;;
39020;SDS011;25188;51.958;5.842;2023-02-13T12:14:30;10.48;;;6.55;;
39020;SDS011;25188;51.958;5.842;2023-02-13T12:17:15;9.38;;;6.60;;
39020;SDS011;25188;51.958;5.842;2023-02-13T12:19:44;8.98;;;6.05;;
39020;SDS011;25188;51.958;5.842;2023-02-13T12:27:43;10.13;;;5.82;;
39020;SDS011;25188;51.958;5.842;2023-02-13T12:35:42;9.07;;;6.60;;
39020;SDS011;25188;51.958;5.842;2023-02-13T12:46:55;8.32;;;6.28;;
39020;SDS011;25188;51.958;5.842;2023-02-13T12:49:39;8.75;;;6.03;;
39020;SDS011;25188;51.958;5.842;2023-02-13T12:52:26;8.80;;;6.33;;
39020;SDS011;25188;51.958;5.842;2023-02-13T12:58:25;10.38;;;6.18;;
39020;SDS011;25188;51.958;5.842;2023-02-13T13:06:20;8.27;;;6.22;;
39020;SDS011;25188;51.958;5.842;2023-02-13T13:11:44;12.23;;;6.38;;
39020;SDS011;25188;51.958;5.842;2023-02-13T13:16:55;10.52;;;7.55;;
39020;SDS011;25188;51.958;5.842;2023-02-13T13:19:34;11.07;;;6.68;;
39020;SDS011;25188;51.958;5.842;2023-02-13T13:22:11;9.18;;;6.60;;
39020;SDS011;25188;51.958;5.842;2023-02-13T13:27:23;7.88;;;5.65;;
39020;SDS011;25188;51.958;5.842;2023-02-13T13:32:47;8.98;;;5.70;;
39020;SDS011;25188;51.958;5.842;2023-02-13T13:35:18;8.80;;;6.53;;
39020;SDS011;25188;51.958;5.842;2023-02-13T13:43:34;9.40;;;5.75;;
39020;SDS011;25188;51.958;5.842;2023-02-13T13:51:23;8.82;;;5.75;;
39020;SDS011;25188;51.958;5.842;2023-02-13T13:54:34;8.15;;;6.05;;
39020;SDS011;25188;51.958;5.842;2023-02-13T14:05:06;7.15;;;4.95;;
39020;SDS011;25188;51.958;5.842;2023-02-13T14:07:38;8.33;;;5.50;;
39020;SDS011;25188;51.958;5.842;2023-02-13T14:12:46;9.98;;;6.65;;
39020;SDS011;25188;51.958;5.842;2023-02-13T14:28:41;8.75;;;6.13;;
39020;SDS011;25188;51.958;5.842;2023-02-13T14:31:13;9.13;;;5.15;;
39020;SDS011;25188;51.958;5.842;2023-02-13T14:33:46;9.38;;;5.18;;
39020;SDS011;25188;51.958;5.842;2023-02-13T14:36:29;7.55;;;5.30;;
39020;SDS011;25188;51.958;5.842;2023-02-13T14:44:18;10.75;;;6.82;;
39020;SDS011;25188;51.958;5.842;2023-02-13T14:46:55;10.00;;;7.00;;
39020;SDS011;25188;51.958;5.842;2023-02-13T14:49:26;9.52;;;6.07;;
39020;SDS011;25188;51.958;5.842;2023-02-13T14:51:58;9.20;;;7.10;;
39020;SDS011;25188;51.958;5.842;2023-02-13T14:54:30;9.80;;;7.13;;
39020;SDS011;25188;51.958;5.842;2023-02-13T14:57:07;9.35;;;6.68;;
39020;SDS011;25188;51.958;5.842;2023-02-13T15:05:00;9.93;;;6.30;;
39020;SDS011;25188;51.958;5.842;2023-02-13T15:07:32;9.85;;;6.50;;
39020;SDS011;25188;51.958;5.842;2023-02-13T15:10:01;8.65;;;5.68;;
39020;SDS011;25188;51.958;5.842;2023-02-13T15:12:38;9.40;;;6.43;;
39020;SDS011;25188;51.958;5.842;2023-02-13T15:15:21;9.02;;;6.25;;
39020;SDS011;25188;51.958;5.842;2023-02-13T15:18:01;8.00;;;5.35;;
39020;SDS011;25188;51.958;5.842;2023-02-13T15:20:33;9.52;;;6.97;;
39020;SDS011;25188;51.958;5.842;2023-02-13T15:23:00;8.40;;;5.60;;
39020;SDS011;25188;51.958;5.842;2023-02-13T15:25:39;10.15;;;6.82;;
39020;SDS011;25188;51.958;5.842;2023-02-13T15:28:06;9.95;;;5.95;;
39020;SDS011;25188;51.958;5.842;2023-02-13T15:30:39;9.32;;;5.75;;
39020;SDS011;25188;51.958;5.842;2023-02-13T15:35:44;10.57;;;7.43;;
39020;SDS011;25188;51.958;5.842;2023-02-13T15:38:20;12.30;;;7.75;;
39020;SDS011;25188;51.958;5.842;2023-02-13T15:40:54;11.05;;;7.00;;
39020;SDS011;25188;51.958;5.842;2023-02-13T15:43:38;10.38;;;7.50;;
39020;SDS011;25188;51.958;5.842;2023-02-13T15:46:17;11.85;;;7.80;;
39020;SDS011;25188;51.958;5.842;2023-02-13T15:48:45;11.43;;;7.85;;
39020;SDS011;25188;51.958;5.842;2023-02-13T15:51:22;13.23;;;7.22;;
39020;SDS011;25188;51.958;5.842;2023-02-13T15:53:59;14.55;;;8.23;;
39020;SDS011;25188;51.958;5.842;2023-02-13T15:56:27;11.35;;;7.10;;
39020;SDS011;25188;51.958;5.842;2023-02-13T15:58:54;11.45;;;8.00;;
39020;SDS011;25188;51.958;5.842;2023-02-13T16:01:22;14.07;;;8.10;;
39020;SDS011;25188;51.958;5.842;2023-02-13T16:03:50;13.77;;;8.40;;
39020;SDS011;25188;51.958;5.842;2023-02-13T16:06:26;14.68;;;8.63;;
39020;SDS011;25188;51.958;5.842;2023-02-13T16:08:54;13.65;;;8.82;;
39020;SDS011;25188;51.958;5.842;2023-02-13T16:13:56;13.48;;;8.40;;
39020;SDS011;25188;51.958;5.842;2023-02-13T16:16:30;14.70;;;8.60;;
39020;SDS011;25188;51.958;5.842;2023-02-13T16:19:00;12.65;;;8.50;;
39020;SDS011;25188;51.958;5.842;2023-02-13T16:21:26;15.60;;;8.40;;
39020;SDS011;25188;51.958;5.842;2023-02-13T16:24:01;15.63;;;9.10;;
39020;SDS011;25188;51.958;5.842;2023-02-13T16:26:29;15.20;;;8.57;;
39020;SDS011;25188;51.958;5.842;2023-02-13T16:28:55;15.85;;;8.80;;
39020;SDS011;25188;51.958;5.842;2023-02-13T16:31:21;14.10;;;8.63;;
39020;SDS011;25188;51.958;5.842;2023-02-13T16:33:47;15.45;;;9.35;;
39020;SDS011;25188;51.958;5.842;2023-02-13T16:38:39;16.77;;;10.40;;
39020;SDS011;25188;51.958;5.842;2023-02-13T16:43:46;15.60;;;9.27;;
39020;SDS011;25188;51.958;5.842;2023-02-13T16:46:19;15.02;;;9.13;;
39020;SDS011;25188;51.958;5.842;2023-02-13T16:54:12;16.20;;;9.50;;
39020;SDS011;25188;51.958;5.842;2023-02-13T16:56:51;19.40;;;10.68;;
39020;SDS011;25188;51.958;5.842;2023-02-13T16:59:24;18.15;;;11.30;;
39020;SDS011;25188;51.958;5.842;2023-02-13T17:02:06;19.37;;;11.63;;
39020;SDS011;25188;51.958;5.842;2023-02-13T17:04:34;19.40;;;12.00;;
39020;SDS011;25188;51.958;5.842;2023-02-13T17:07:03;20.30;;;13.40;;
39020;SDS011;25188;51.958;5.842;2023-02-13T17:09:29;21.67;;;13.63;;
39020;SDS011;25188;51.958;5.842;2023-02-13T17:11:55;20.35;;;13.57;;
39020;SDS011;25188;51.958;5.842;2023-02-13T17:14:21;21.25;;;13.85;;
39020;SDS011;25188;51.958;5.842;2023-02-13T17:16:46;21.20;;;13.50;;
39020;SDS011;25188;51.958;5.842;2023-02-13T17:19:12;25.60;;;15.60;;
39020;SDS011;25188;51.958;5.842;2023-02-13T17:21:38;23.15;;;15.93;;
39020;SDS011;25188;51.958;5.842;2023-02-13T17:24:05;24.02;;;14.65;;
39020;SDS011;25188;51.958;5.842;2023-02-13T17:26:32;23.90;;;15.20;;
39020;SDS011;25188;51.958;5.842;2023-02-13T17:28:57;23.33;;;15.57;;
39020;SDS011;25188;51.958;5.842;2023-02-13T17:31:23;21.77;;;14.82;;
39020;SDS011;25188;51.958;5.842;2023-02-13T17:33:49;23.13;;;14.95;;
39020;SDS011;25188;51.958;5.842;2023-02-13T17:36:14;23.30;;;15.35;;
39020;SDS011;25188;51.958;5.842;2023-02-13T17:38:40;24.43;;;15.63;;
39020;SDS011;25188;51.958;5.842;2023-02-13T17:41:10;25.35;;;16.08;;
39020;SDS011;25188;51.958;5.842;2023-02-13T17:43:39;23.60;;;15.82;;
39020;SDS011;25188;51.958;5.842;2023-02-13T17:46:05;24.37;;;15.93;;
39020;SDS011;25188;51.958;5.842;2023-02-13T17:48:31;26.43;;;16.83;;
39020;SDS011;25188;51.958;5.842;2023-02-13T17:50:56;26.13;;;16.87;;
39020;SDS011;25188;51.958;5.842;2023-02-13T17:53:23;25.57;;;17.43;;